sensor_id;sensor_type;location;lat;lon;timestamp;pressure;altitude;pressure_sealevel;temperature;humidity
4705;BME280;2366;51.332;6.610;2023-04-06T00:01:32;101685.84;;;5.75;57.45
4705;BME280;2366;51.332;6.610;2023-04-06T00:03:57;101683.28;;;5.72;57.64
4705;BME280;2366;51.332;6.610;2023-04-06T00:06:23;101683.50;;;5.65;57.70
4705;BME280;2366;51.332;6.610;2023-04-06T00:08:48;101680.97;;;5.62;58.20
4705;BME280;2366;51.332;6.610;2023-04-06T00:11:14;101678.34;;;5.60;58.42
4705;BME280;2366;51.332;6.610;2023-04-06T00:13:42;101681.03;;;5.59;58.51
4705;BME280;2366;51.332;6.610;2023-04-06T00:16:07;101674.06;;;5.56;58.74
4705;BME280;2366;51.332;6.610;2023-04-06T00:18:33;101677.66;;;5.53;58.99
4705;BME280;2366;51.332;6.610;2023-04-06T00:20:58;101678.59;;;5.51;58.90
4705;BME280;2366;51.332;6.610;2023-04-06T00:23:24;101675.06;;;5.52;59.31
4705;BME280;2366;51.332;6.610;2023-04-06T00:25:49;101663.78;;;5.47;59.27
4705;BME280;2366;51.332;6.610;2023-04-06T00:28:15;101667.31;;;5.46;59.30
4705;BME280;2366;51.332;6.610;2023-04-06T00:30:41;101663.78;;;5.47;59.58
4705;BME280;2366;51.332;6.610;2023-04-06T00:33:06;101670.03;;;5.43;59.30
4705;BME280;2366;51.332;6.610;2023-04-06T00:35:32;101671.84;;;5.39;59.96
4705;BME280;2366;51.332;6.610;2023-04-06T00:37:57;101661.38;;;5.38;59.98
4705;BME280;2366;51.332;6.610;2023-04-06T00:40:23;101669.38;;;5.33;59.98
4705;BME280;2366;51.332;6.610;2023-04-06T00:42:49;101661.56;;;5.30;60.43
4705;BME280;2366;51.332;6.610;2023-04-06T00:45:15;101656.38;;;5.27;60.04
4705;BME280;2366;51.332;6.610;2023-04-06T00:47:40;101651.16;;;5.25;60.14
4705;BME280;2366;51.332;6.610;2023-04-06T00:50:06;101652.03;;;5.26;60.29
4705;BME280;2366;51.332;6.610;2023-04-06T00:52:33;101649.41;;;5.24;60.44
4705;BME280;2366;51.332;6.610;2023-04-06T00:54:58;101650.41;;;5.20;60.31
4705;BME280;2366;51.332;6.610;2023-04-06T00:57:24;101646.94;;;5.18;60.05
4705;BME280;2366;51.332;6.610;2023-04-06T00:59:49;101641.75;;;5.15;59.83
4705;BME280;2366;51.332;6.610;2023-04-06T01:02:15;101641.84;;;5.12;60.21
4705;BME280;2366;51.332;6.610;2023-04-06T01:04:40;101633.13;;;5.10;59.71
4705;BME280;2366;51.332;6.610;2023-04-06T01:07:06;101628.00;;;5.05;59.50
4705;BME280;2366;51.332;6.610;2023-04-06T01:09:31;101624.56;;;5.02;59.86
4705;BME280;2366;51.332;6.610;2023-04-06T01:11:57;101624.63;;;4.99;59.78
4705;BME280;2366;51.332;6.610;2023-04-06T01:14:23;101622.91;;;4.98;59.91
4705;BME280;2366;51.332;6.610;2023-04-06T01:16:49;101623.81;;;4.97;60.17
4705;BME280;2366;51.332;6.610;2023-04-06T01:19:15;101621.19;;;4.97;60.13
4705;BME280;2366;51.332;6.610;2023-04-06T01:21:41;101620.34;;;4.94;60.65
4705;BME280;2366;51.332;6.610;2023-04-06T01:24:07;101618.69;;;4.90;60.53
4705;BME280;2366;51.332;6.610;2023-04-06T01:26:33;101624.00;;;4.87;60.58
4705;BME280;2366;51.332;6.610;2023-04-06T01:29:00;101617.09;;;4.83;60.78
4705;BME280;2366;51.332;6.610;2023-04-06T01:31:25;101617.09;;;4.83;60.23
4705;BME280;2366;51.332;6.610;2023-04-06T01:33:52;101616.22;;;4.84;60.51
4705;BME280;2366;51.332;6.610;2023-04-06T01:36:18;101613.56;;;4.84;60.79
4705;BME280;2366;51.332;6.610;2023-04-06T01:38:43;101611.81;;;4.85;60.54
4705;BME280;2366;51.332;6.610;2023-04-06T01:41:09;101604.88;;;4.82;60.61
4705;BME280;2366;51.332;6.610;2023-04-06T01:43:35;101606.66;;;4.80;60.85
4705;BME280;2366;51.332;6.610;2023-04-06T01:46:01;101598.88;;;4.77;61.26
4705;BME280;2366;51.332;6.610;2023-04-06T01:48:27;101604.16;;;4.76;61.16
4705;BME280;2366;51.332;6.610;2023-04-06T01:50:53;101602.50;;;4.70;61.39
4705;BME280;2366;51.332;6.610;2023-04-06T01:53:19;101602.59;;;4.67;61.29
4705;BME280;2366;51.332;6.610;2023-04-06T01:55:44;101596.47;;;4.66;61.63
4705;BME280;2366;51.332;6.610;2023-04-06T01:58:10;101601.75;;;4.65;61.60
4705;BME280;2366;51.332;6.610;2023-04-06T02:00:35;101604.44;;;4.62;61.79
4705;BME280;2366;51.332;6.610;2023-04-06T02:03:01;101595.69;;;4.63;61.97
4705;BME280;2366;51.332;6.610;2023-04-06T02:05:26;101601.88;;;4.60;61.34
4705;BME280;2366;51.332;6.610;2023-04-06T02:07:52;101594.03;;;4.57;61.49
4705;BME280;2366;51.332;6.610;2023-04-06T02:10:17;101587.09;;;4.55;61.46
4705;BME280;2366;51.332;6.610;2023-04-06T02:12:43;101589.81;;;4.51;61.73
4705;BME280;2366;51.332;6.610;2023-04-06T02:15:08;101593.31;;;4.50;61.40
4705;BME280;2366;51.332;6.610;2023-04-06T02:17:34;101593.31;;;4.50;61.90
4705;BME280;2366;51.332;6.610;2023-04-06T02:19:59;101583.75;;;4.46;61.41
4705;BME280;2366;51.332;6.610;2023-04-06T02:22:25;101581.19;;;4.45;61.93
4705;BME280;2366;51.332;6.610;2023-04-06T02:24:50;101582.91;;;4.46;61.79
4705;BME280;2366;51.332;6.610;2023-04-06T02:27:16;101588.19;;;4.44;61.81
4705;BME280;2366;51.332;6.610;2023-04-06T02:29:41;101588.25;;;4.43;62.02
4705;BME280;2366;51.332;6.610;2023-04-06T02:32:06;101578.59;;;4.43;61.79
4705;BME280;2366;51.332;6.610;2023-04-06T02:34:32;101581.19;;;4.45;61.69
4705;BME280;2366;51.332;6.610;2023-04-06T02:36:57;101582.06;;;4.45;61.63
4705;BME280;2366;51.332;6.610;2023-04-06T02:39:23;101582.09;;;4.42;61.48
4705;BME280;2366;51.332;6.610;2023-04-06T02:41:48;101579.56;;;4.39;61.46
4705;BME280;2366;51.332;6.610;2023-04-06T02:44:14;101583.03;;;4.40;61.54
4705;BME280;2366;51.332;6.610;2023-04-06T02:46:39;101580.31;;;4.44;61.63
4705;BME280;2366;51.332;6.610;2023-04-06T02:49:05;101582.78;;;4.52;61.36
4705;BME280;2366;51.332;6.610;2023-04-06T02:51:30;101588.97;;;4.49;61.23
4705;BME280;2366;51.332;6.610;2023-04-06T02:53:56;101578.50;;;4.46;60.89
4705;BME280;2366;51.332;6.610;2023-04-06T02:56:21;101587.34;;;4.42;61.04
4705;BME280;2366;51.332;6.610;2023-04-06T02:58:47;101578.72;;;4.37;60.88
4705;BME280;2366;51.332;6.610;2023-04-06T03:01:12;101577.91;;;4.35;61.01
4705;BME280;2366;51.332;6.610;2023-04-06T03:03:38;101573.66;;;4.29;61.58
4705;BME280;2366;51.332;6.610;2023-04-06T03:06:04;101573.72;;;4.25;61.60
4705;BME280;2366;51.332;6.610;2023-04-06T03:08:29;101570.28;;;4.23;61.51
4705;BME280;2366;51.332;6.610;2023-04-06T03:10:55;101572.03;;;4.22;61.45
4705;BME280;2366;51.332;6.610;2023-04-06T03:13:21;101569.47;;;4.21;61.48
4705;BME280;2366;51.332;6.610;2023-04-06T03:15:46;101573.88;;;4.19;61.77
4705;BME280;2366;51.332;6.610;2023-04-06T03:18:12;101558.06;;;4.20;61.59
4705;BME280;2366;51.332;6.610;2023-04-06T03:20:37;101571.28;;;4.17;61.54
4705;BME280;2366;51.332;6.610;2023-04-06T03:23:04;101572.22;;;4.15;61.76
4705;BME280;2366;51.332;6.610;2023-04-06T03:25:29;101568.81;;;4.09;61.98
4705;BME280;2366;51.332;6.610;2023-04-06T03:27:55;101564.44;;;4.10;61.82
4705;BME280;2366;51.332;6.610;2023-04-06T03:30:21;101570.56;;;4.10;62.14
4705;BME280;2366;51.332;6.610;2023-04-06T03:32:46;101567.91;;;4.12;61.97
4705;BME280;2366;51.332;6.610;2023-04-06T03:35:12;101567.00;;;4.11;61.96
4705;BME280;2366;51.332;6.610;2023-04-06T03:37:37;101568.81;;;4.09;62.38
4705;BME280;2366;51.332;6.610;2023-04-06T03:40:04;101570.56;;;4.10;62.03
4705;BME280;2366;51.332;6.610;2023-04-06T03:42:29;101573.16;;;4.12;62.09
4705;BME280;2366;51.332;6.610;2023-04-06T03:44:56;101573.19;;;4.10;62.73
4705;BME280;2366;51.332;6.610;2023-04-06T03:47:22;101567.00;;;4.11;62.10
4705;BME280;2366;51.332;6.610;2023-04-06T03:49:48;101567.00;;;4.13;62.37
4705;BME280;2366;51.332;6.610;2023-04-06T03:52:13;101565.22;;;4.14;62.63
4705;BME280;2366;51.332;6.610;2023-04-06T03:54:38;101560.06;;;4.10;62.18
4705;BME280;2366;51.332;6.610;2023-04-06T03:57:04;101566.13;;;4.13;62.37
4705;BME280;2366;51.332;6.610;2023-04-06T03:59:30;101564.38;;;4.13;62.65
4705;BME280;2366;51.332;6.610;2023-04-06T04:01:55;101560.06;;;4.10;62.71
4705;BME280;2366;51.332;6.610;2023-04-06T04:04:21;101557.53;;;4.06;62.89
4705;BME280;2366;51.332;6.610;2023-04-06T04:06:46;101558.44;;;4.03;62.49
4705;BME280;2366;51.332;6.610;2023-04-06T04:09:11;101558.50;;;4.00;62.86
4705;BME280;2366;51.332;6.610;2023-04-06T04:11:37;101563.69;;;4.03;63.10
4705;BME280;2366;51.332;6.610;2023-04-06T04:14:03;101564.47;;;4.08;63.25
4705;BME280;2366;51.332;6.610;2023-04-06T04:16:28;101556.50;;;4.11;62.91
4705;BME280;2366;51.332;6.610;2023-04-06T04:18:54;101557.41;;;4.12;63.34
4705;BME280;2366;51.332;6.610;2023-04-06T04:21:20;101552.94;;;4.16;62.70
4705;BME280;2366;51.332;6.610;2023-04-06T04:23:45;101556.50;;;4.11;62.79
4705;BME280;2366;51.332;6.610;2023-04-06T04:26:11;101554.81;;;4.09;62.61
4705;BME280;2366;51.332;6.610;2023-04-06T04:28:36;101553.13;;;4.08;62.93
4705;BME280;2366;51.332;6.610;2023-04-06T04:31:01;101556.59;;;4.08;62.67
4705;BME280;2366;51.332;6.610;2023-04-06T04:33:27;101556.59;;;4.08;62.73
4705;BME280;2366;51.332;6.610;2023-04-06T04:35:52;101558.31;;;4.09;62.78
4705;BME280;2366;51.332;6.610;2023-04-06T04:38:18;101561.75;;;4.11;62.97
4705;BME280;2366;51.332;6.610;2023-04-06T04:40:43;101555.66;;;4.11;62.80
4705;BME280;2366;51.332;6.610;2023-04-06T04:43:09;101552.94;;;4.16;63.53
4705;BME280;2366;51.332;6.610;2023-04-06T04:45:34;101555.28;;;4.29;63.10
4705;BME280;2366;51.332;6.610;2023-04-06T04:48:00;101550.50;;;4.47;62.96
4705;BME280;2366;51.332;6.610;2023-04-06T04:50:25;101554.53;;;4.62;62.45
4705;BME280;2366;51.332;6.610;2023-04-06T04:52:50;101555.31;;;4.67;62.32
4705;BME280;2366;51.332;6.610;2023-04-06T04:55:16;101558.66;;;4.72;61.84
4705;BME280;2366;51.332;6.610;2023-04-06T04:57:42;101560.31;;;4.78;61.57
4705;BME280;2366;51.332;6.610;2023-04-06T05:00:08;101563.56;;;4.87;61.47
4705;BME280;2366;51.332;6.610;2023-04-06T05:02:34;101565.16;;;4.94;60.79
4705;BME280;2366;51.332;6.610;2023-04-06T05:04:59;101564.97;;;5.01;60.84
4705;BME280;2366;51.332;6.610;2023-04-06T05:07:25;101563.13;;;5.06;60.23
4705;BME280;2366;51.332;6.610;2023-04-06T05:09:50;101568.16;;;5.13;60.11
4705;BME280;2366;51.332;6.610;2023-04-06T05:12:16;101567.06;;;5.22;59.84
4705;BME280;2366;51.332;6.610;2023-04-06T05:14:41;101570.34;;;5.32;59.52
4705;BME280;2366;51.332;6.610;2023-04-06T05:17:07;101570.97;;;5.42;59.08
4705;BME280;2366;51.332;6.610;2023-04-06T05:19:32;101568.84;;;5.56;59.05
4705;BME280;2366;51.332;6.610;2023-04-06T05:21:57;101562.31;;;5.71;58.60
4705;BME280;2366;51.332;6.610;2023-04-06T05:24:23;101565.31;;;5.88;57.99
4705;BME280;2366;51.332;6.610;2023-04-06T05:26:48;101568.44;;;6.03;57.51
4705;BME280;2366;51.332;6.610;2023-04-06T05:29:14;101566.28;;;6.17;57.29
4705;BME280;2366;51.332;6.610;2023-04-06T05:31:40;101561.16;;;6.42;56.74
4705;BME280;2366;51.332;6.610;2023-04-06T05:34:05;101572.25;;;6.80;55.61
4705;BME280;2366;51.332;6.610;2023-04-06T05:36:31;101569.19;;;7.71;55.08
4705;BME280;2366;51.332;6.610;2023-04-06T05:38:57;101578.34;;;9.00;50.57
4705;BME280;2366;51.332;6.610;2023-04-06T05:41:23;101573.69;;;10.08;49.76
4705;BME280;2366;51.332;6.610;2023-04-06T05:43:49;101571.16;;;11.00;47.17
4705;BME280;2366;51.332;6.610;2023-04-06T05:46:18;101563.84;;;11.73;44.71
4705;BME280;2366;51.332;6.610;2023-04-06T05:48:43;101561.88;;;12.27;42.30
4705;BME280;2366;51.332;6.610;2023-04-06T05:51:08;101563.75;;;12.57;40.92
4705;BME280;2366;51.332;6.610;2023-04-06T05:53:34;101562.88;;;12.72;40.01
4705;BME280;2366;51.332;6.610;2023-04-06T05:56:03;101564.66;;;13.04;39.30
4705;BME280;2366;51.332;6.610;2023-04-06T05:58:29;101559.72;;;12.50;39.55
4705;BME280;2366;51.332;6.610;2023-04-06T06:00:58;101557.50;;;12.58;38.38
4705;BME280;2366;51.332;6.610;2023-04-06T06:03:23;101559.34;;;12.88;38.46
4705;BME280;2366;51.332;6.610;2023-04-06T06:05:49;101555.56;;;13.38;36.75
4705;BME280;2366;51.332;6.610;2023-04-06T06:08:14;101555.28;;;12.97;36.78
4705;BME280;2366;51.332;6.610;2023-04-06T06:10:39;101557.84;;;13.44;36.63
4705;BME280;2366;51.332;6.610;2023-04-06T06:13:05;101556.56;;;14.09;35.50
4705;BME280;2366;51.332;6.610;2023-04-06T06:15:31;101559.91;;;14.95;33.70
4705;BME280;2366;51.332;6.610;2023-04-06T06:17:56;101558.09;;;15.49;33.44
4705;BME280;2366;51.332;6.610;2023-04-06T06:20:21;101550.94;;;15.62;31.80
4705;BME280;2366;51.332;6.610;2023-04-06T06:22:47;101540.78;;;16.06;31.28
4705;BME280;2366;51.332;6.610;2023-04-06T06:25:12;101546.59;;;16.60;30.69
4705;BME280;2366;51.332;6.610;2023-04-06T06:27:38;101536.50;;;15.65;31.17
4705;BME280;2366;51.332;6.610;2023-04-06T06:30:04;101544.88;;;15.86;31.61
4705;BME280;2366;51.332;6.610;2023-04-06T06:32:30;101548.56;;;16.82;30.03
4705;BME280;2366;51.332;6.610;2023-04-06T06:34:55;101549.34;;;16.48;31.05
4705;BME280;2366;51.332;6.610;2023-04-06T06:37:21;101554.69;;;17.55;29.23
4705;BME280;2366;51.332;6.610;2023-04-06T06:39:46;101557.59;;;18.54;28.22
4705;BME280;2366;51.332;6.610;2023-04-06T06:42:11;101558.06;;;19.35;27.54
4705;BME280;2366;51.332;6.610;2023-04-06T06:44:37;101553.13;;;19.82;25.68
4705;BME280;2366;51.332;6.610;2023-04-06T06:47:02;101553.69;;;18.80;26.95
4705;BME280;2366;51.332;6.610;2023-04-06T06:49:28;101547.91;;;19.17;26.48
4705;BME280;2366;51.332;6.610;2023-04-06T06:51:53;101548.22;;;19.24;25.98
4705;BME280;2366;51.332;6.610;2023-04-06T06:54:18;101543.28;;;17.87;28.03
4705;BME280;2366;51.332;6.610;2023-04-06T06:56:44;101545.22;;;16.92;29.55
4705;BME280;2366;51.332;6.610;2023-04-06T06:59:10;101543.50;;;17.95;29.24
4705;BME280;2366;51.332;6.610;2023-04-06T07:01:36;101547.09;;;19.99;26.81
4705;BME280;2366;51.332;6.610;2023-04-06T07:04:01;101540.44;;;21.70;24.02
4705;BME280;2366;51.332;6.610;2023-04-06T07:06:27;101548.50;;;22.18;24.06
4705;BME280;2366;51.332;6.610;2023-04-06T07:08:52;101537.44;;;19.45;25.68
4705;BME280;2366;51.332;6.610;2023-04-06T07:11:20;101535.22;;;17.18;28.76
4705;BME280;2366;51.332;6.610;2023-04-06T07:13:46;101534.81;;;16.63;29.75
4705;BME280;2366;51.332;6.610;2023-04-06T07:16:11;101526.53;;;16.55;29.90
4705;BME280;2366;51.332;6.610;2023-04-06T07:18:37;101526.31;;;16.82;29.66
4705;BME280;2366;51.332;6.610;2023-04-06T07:21:02;101529.25;;;18.72;27.49
4705;BME280;2366;51.332;6.610;2023-04-06T07:23:28;101527.66;;;20.36;26.71
4705;BME280;2366;51.332;6.610;2023-04-06T07:25:53;101524.88;;;22.20;24.15
4705;BME280;2366;51.332;6.610;2023-04-06T07:28:19;101523.63;;;24.18;21.62
4705;BME280;2366;51.332;6.610;2023-04-06T07:30:45;101521.75;;;22.52;22.21
4705;BME280;2366;51.332;6.610;2023-04-06T07:33:11;101519.91;;;21.40;23.61
4705;BME280;2366;51.332;6.610;2023-04-06T07:35:36;101520.84;;;21.68;23.51
4705;BME280;2366;51.332;6.610;2023-04-06T07:38:02;101518.97;;;20.83;24.22
4705;BME280;2366;51.332;6.610;2023-04-06T07:40:28;101507.06;;;19.75;25.40
4705;BME280;2366;51.332;6.610;2023-04-06T07:42:53;101512.91;;;19.59;26.11
4705;BME280;2366;51.332;6.610;2023-04-06T07:45:20;101518.25;;;19.07;26.76
4705;BME280;2366;51.332;6.610;2023-04-06T07:47:46;101503.06;;;18.53;26.85
4705;BME280;2366;51.332;6.610;2023-04-06T07:50:11;101515.69;;;18.19;27.74
4705;BME280;2366;51.332;6.610;2023-04-06T07:52:37;101505.47;;;18.01;28.04
4705;BME280;2366;51.332;6.610;2023-04-06T07:55:03;101506.44;;;18.12;27.49
4705;BME280;2366;51.332;6.610;2023-04-06T07:57:28;101503.72;;;17.44;28.57
4705;BME280;2366;51.332;6.610;2023-04-06T07:59:54;101515.00;;;17.25;28.67
4705;BME280;2366;51.332;6.610;2023-04-06T08:02:20;101510.56;;;16.77;29.90
4705;BME280;2366;51.332;6.610;2023-04-06T08:04:45;101512.78;;;17.77;29.10
4705;BME280;2366;51.332;6.610;2023-04-06T08:07:10;101513.75;;;18.64;27.29
4705;BME280;2366;51.332;6.610;2023-04-06T08:09:36;101505.88;;;19.37;26.84
4705;BME280;2366;51.332;6.610;2023-04-06T08:12:01;101518.75;;;20.36;25.81
4705;BME280;2366;51.332;6.610;2023-04-06T08:14:27;101518.84;;;21.04;26.03
4705;BME280;2366;51.332;6.610;2023-04-06T08:16:52;101511.03;;;20.62;25.11
4705;BME280;2366;51.332;6.610;2023-04-06T08:19:18;101512.59;;;21.13;25.73
4705;BME280;2366;51.332;6.610;2023-04-06T08:21:47;101511.25;;;21.46;25.35
4705;BME280;2366;51.332;6.610;2023-04-06T08:24:13;101515.41;;;22.79;24.09
4705;BME280;2366;51.332;6.610;2023-04-06T08:26:39;101514.03;;;23.11;22.58
4705;BME280;2366;51.332;6.610;2023-04-06T08:29:04;101511.09;;;23.04;22.93
4705;BME280;2366;51.332;6.610;2023-04-06T08:31:33;101511.25;;;23.03;23.26
4705;BME280;2366;51.332;6.610;2023-04-06T08:33:59;101512.03;;;23.13;22.91
4705;BME280;2366;51.332;6.610;2023-04-06T08:36:25;101505.28;;;23.69;22.09
4705;BME280;2366;51.332;6.610;2023-04-06T08:38:50;101506.34;;;23.24;22.47
4705;BME280;2366;51.332;6.610;2023-04-06T08:41:16;101505.16;;;22.19;23.45
4705;BME280;2366;51.332;6.610;2023-04-06T08:43:47;101500.22;;;23.14;22.61
4705;BME280;2366;51.332;6.610;2023-04-06T08:46:14;101498.56;;;22.85;22.77
4705;BME280;2366;51.332;6.610;2023-04-06T08:48:41;101496.88;;;21.65;23.86
4705;BME280;2366;51.332;6.610;2023-04-06T08:51:08;101495.41;;;20.95;24.84
4705;BME280;2366;51.332;6.610;2023-04-06T08:53:34;101497.72;;;20.70;25.30
4705;BME280;2366;51.332;6.610;2023-04-06T08:56:00;101488.13;;;19.77;26.06
4705;BME280;2366;51.332;6.610;2023-04-06T08:58:28;101487.25;;;19.24;26.64
4705;BME280;2366;51.332;6.610;2023-04-06T09:00:56;101488.53;;;18.56;27.96
4705;BME280;2366;51.332;6.610;2023-04-06T09:03:22;101489.91;;;18.50;28.45
4705;BME280;2366;51.332;6.610;2023-04-06T09:05:47;101489.56;;;18.43;29.19
4705;BME280;2366;51.332;6.610;2023-04-06T09:08:13;101486.75;;;18.34;29.38
4705;BME280;2366;51.332;6.610;2023-04-06T09:10:42;101483.47;;;18.41;29.24
4705;BME280;2366;51.332;6.610;2023-04-06T09:13:08;101486.91;;;18.64;28.79
4705;BME280;2366;51.332;6.610;2023-04-06T09:15:34;101485.03;;;18.76;28.40
4705;BME280;2366;51.332;6.610;2023-04-06T09:18:00;101494.03;;;18.86;28.27
4705;BME280;2366;51.332;6.610;2023-04-06T09:20:26;101489.88;;;18.94;28.19
4705;BME280;2366;51.332;6.610;2023-04-06T09:22:54;101482.47;;;19.07;27.89
4705;BME280;2366;51.332;6.610;2023-04-06T09:25:24;101485.59;;;19.12;27.38
4705;BME280;2366;51.332;6.610;2023-04-06T09:27:59;101480.31;;;19.22;27.95
4705;BME280;2366;51.332;6.610;2023-04-06T09:30:25;101476.41;;;19.36;27.18
4705;BME280;2366;51.332;6.610;2023-04-06T09:32:54;101478.53;;;19.11;27.79
4705;BME280;2366;51.332;6.610;2023-04-06T09:35:20;101483.28;;;18.86;27.63
4705;BME280;2366;51.332;6.610;2023-04-06T09:37:47;101477.06;;;18.86;28.09
4705;BME280;2366;51.332;6.610;2023-04-06T09:40:13;101478.66;;;18.77;27.92
4705;BME280;2366;51.332;6.610;2023-04-06T09:42:41;101471.72;;;18.86;28.19
4705;BME280;2366;51.332;6.610;2023-04-06T09:45:07;101465.47;;;19.27;27.95
4705;BME280;2366;51.332;6.610;2023-04-06T09:47:33;101470.19;;;19.66;27.36
4705;BME280;2366;51.332;6.610;2023-04-06T09:50:02;101469.47;;;19.33;27.10
4705;BME280;2366;51.332;6.610;2023-04-06T09:52:33;101475.72;;;19.64;27.26
4705;BME280;2366;51.332;6.610;2023-04-06T09:55:05;101481.44;;;20.11;26.59
4705;BME280;2366;51.332;6.610;2023-04-06T09:57:52;101482.97;;;20.04;27.11
4705;BME280;2366;51.332;6.610;2023-04-06T10:00:21;101474.16;;;19.41;27.53
4705;BME280;2366;51.332;6.610;2023-04-06T10:03:26;101473.84;;;19.55;28.00
4705;BME280;2366;51.332;6.610;2023-04-06T10:05:57;101471.16;;;19.34;28.21
4705;BME280;2366;51.332;6.610;2023-04-06T10:08:27;101481.56;;;19.18;27.84
4705;BME280;2366;51.332;6.610;2023-04-06T10:10:54;101472.25;;;19.01;28.30
4705;BME280;2366;51.332;6.610;2023-04-06T10:13:20;101477.53;;;18.59;29.25
4705;BME280;2366;51.332;6.610;2023-04-06T10:15:46;101468.03;;;18.55;29.02
4705;BME280;2366;51.332;6.610;2023-04-06T10:18:12;101473.78;;;18.50;29.39
4705;BME280;2366;51.332;6.610;2023-04-06T10:20:47;101475.50;;;18.83;29.71
4705;BME280;2366;51.332;6.610;2023-04-06T10:23:32;101471.47;;;19.41;28.62
4705;BME280;2366;51.332;6.610;2023-04-06T10:26:00;101477.31;;;19.67;28.52
4705;BME280;2366;51.332;6.610;2023-04-06T10:28:30;101473.59;;;19.89;27.95
4705;BME280;2366;51.332;6.610;2023-04-06T10:30:58;101469.13;;;20.19;27.80
4705;BME280;2366;51.332;6.610;2023-04-06T10:33:24;101472.59;;;19.90;28.58
4705;BME280;2366;51.332;6.610;2023-04-06T10:35:50;101467.72;;;20.34;27.96
4705;BME280;2366;51.332;6.610;2023-04-06T10:38:15;101460.41;;;19.86;28.42
4705;BME280;2366;51.332;6.610;2023-04-06T10:40:45;101467.69;;;19.43;29.84
4705;BME280;2366;51.332;6.610;2023-04-06T10:45:40;101462.66;;;19.29;30.14
4705;BME280;2366;51.332;6.610;2023-04-06T10:48:16;101468.47;;;19.86;29.07
4705;BME280;2366;51.332;6.610;2023-04-06T10:50:47;101466.78;;;19.64;29.52
4705;BME280;2366;51.332;6.610;2023-04-06T10:53:27;101470.50;;;19.63;30.04
4705;BME280;2366;51.332;6.610;2023-04-06T10:55:55;101471.19;;;19.96;29.55
4705;BME280;2366;51.332;6.610;2023-04-06T10:58:25;101471.63;;;19.91;29.97
4705;BME280;2366;51.332;6.610;2023-04-06T11:00:50;101472.50;;;19.70;30.12
4705;BME280;2366;51.332;6.610;2023-04-06T11:03:16;101471.53;;;19.72;30.22
4705;BME280;2366;51.332;6.610;2023-04-06T11:05:50;101465.34;;;19.08;31.54
4705;BME280;2366;51.332;6.610;2023-04-06T11:08:25;101459.41;;;19.04;31.82
4705;BME280;2366;51.332;6.610;2023-04-06T11:10:51;101460.97;;;19.07;32.00
4705;BME280;2366;51.332;6.610;2023-04-06T11:13:17;101463.25;;;18.91;32.07
4705;BME280;2366;51.332;6.610;2023-04-06T11:15:42;101458.22;;;18.97;31.74
4705;BME280;2366;51.332;6.610;2023-04-06T11:18:08;101466.59;;;19.04;31.58
4705;BME280;2366;51.332;6.610;2023-04-06T11:20:33;101465.06;;;19.32;30.53
4705;BME280;2366;51.332;6.610;2023-04-06T11:22:59;101468.13;;;19.48;29.63
4705;BME280;2366;51.332;6.610;2023-04-06T11:25:25;101454.91;;;19.36;29.43
4705;BME280;2366;51.332;6.610;2023-04-06T11:27:55;101468.69;;;19.21;30.03
4705;BME280;2366;51.332;6.610;2023-04-06T11:30:20;101461.38;;;19.02;30.47
4705;BME280;2366;51.332;6.610;2023-04-06T11:32:46;101461.97;;;18.85;30.59
4705;BME280;2366;51.332;6.610;2023-04-06T11:35:20;101462.63;;;19.19;31.66
4705;BME280;2366;51.332;6.610;2023-04-06T11:37:45;101446.13;;;19.34;31.15
4705;BME280;2366;51.332;6.610;2023-04-06T11:40:11;101451.47;;;19.55;30.73
4705;BME280;2366;51.332;6.610;2023-04-06T11:42:36;101452.00;;;19.48;30.98
4705;BME280;2366;51.332;6.610;2023-04-06T11:45:07;101451.88;;;19.81;31.00
4705;BME280;2366;51.332;6.610;2023-04-06T11:47:34;101443.44;;;19.95;30.90
4705;BME280;2366;51.332;6.610;2023-04-06T11:50:07;101445.47;;;20.13;30.97
4705;BME280;2366;51.332;6.610;2023-04-06T11:52:33;101445.44;;;20.03;30.72
4705;BME280;2366;51.332;6.610;2023-04-06T11:57:38;101445.50;;;20.32;30.75
4705;BME280;2366;51.332;6.610;2023-04-06T12:00:05;101450.22;;;19.99;30.92
4705;BME280;2366;51.332;6.610;2023-04-06T12:02:31;101442.06;;;20.20;30.54
4705;BME280;2366;51.332;6.610;2023-04-06T12:04:57;101440.25;;;20.30;30.33
4705;BME280;2366;51.332;6.610;2023-04-06T12:07:23;101441.19;;;20.00;29.29
4705;BME280;2366;51.332;6.610;2023-04-06T12:09:48;101437.63;;;19.59;29.98
4705;BME280;2366;51.332;6.610;2023-04-06T12:12:13;101436.78;;;19.59;29.87
4705;BME280;2366;51.332;6.610;2023-04-06T12:14:39;101432.78;;;19.53;30.00
4705;BME280;2366;51.332;6.610;2023-04-06T12:17:04;101433.16;;;19.39;30.52
4705;BME280;2366;51.332;6.610;2023-04-06T12:19:30;101433.31;;;19.47;30.39
4705;BME280;2366;51.332;6.610;2023-04-06T12:21:56;101438.47;;;19.60;30.47
4705;BME280;2366;51.332;6.610;2023-04-06T12:24:22;101438.47;;;19.60;30.66
4705;BME280;2366;51.332;6.610;2023-04-06T12:26:48;101440.84;;;19.53;30.87
4705;BME280;2366;51.332;6.610;2023-04-06T12:29:13;101437.09;;;19.65;31.01
4705;BME280;2366;51.332;6.610;2023-04-06T12:31:39;101441.72;;;19.84;30.81
4705;BME280;2366;51.332;6.610;2023-04-06T12:34:06;101446.75;;;19.78;31.08
4705;BME280;2366;51.332;6.610;2023-04-06T12:36:32;101439.41;;;19.80;31.13
4705;BME280;2366;51.332;6.610;2023-04-06T12:38:58;101436.16;;;19.76;31.53
4705;BME280;2366;51.332;6.610;2023-04-06T12:41:23;101446.41;;;19.92;31.52
4705;BME280;2366;51.332;6.610;2023-04-06T12:43:50;101439.22;;;20.02;30.68
4705;BME280;2366;51.332;6.610;2023-04-06T12:46:16;101448.59;;;20.18;30.55
4705;BME280;2366;51.332;6.610;2023-04-06T12:48:41;101441.47;;;19.36;30.98
4705;BME280;2366;51.332;6.610;2023-04-06T12:51:07;101432.59;;;19.14;31.10
4705;BME280;2366;51.332;6.610;2023-04-06T12:53:33;101436.28;;;19.44;30.52
4705;BME280;2366;51.332;6.610;2023-04-06T12:56:00;101433.75;;;19.21;31.38
4705;BME280;2366;51.332;6.610;2023-04-06T12:58:25;101428.66;;;19.18;31.73
4705;BME280;2366;51.332;6.610;2023-04-06T13:00:55;101426.16;;;18.84;31.89
4705;BME280;2366;51.332;6.610;2023-04-06T13:03:21;101436.22;;;18.71;32.42
4705;BME280;2366;51.332;6.610;2023-04-06T13:05:49;101442.44;;;17.62;34.10
4705;BME280;2366;51.332;6.610;2023-04-06T13:08:15;101423.31;;;17.66;34.33
4705;BME280;2366;51.332;6.610;2023-04-06T13:10:46;101437.47;;;17.46;35.41
4705;BME280;2366;51.332;6.610;2023-04-06T13:13:14;101439.16;;;17.70;35.64
4705;BME280;2366;51.332;6.610;2023-04-06T13:15:39;101443.56;;;17.82;36.26